Time;durP1;ratioP1;P1;durP2;ratioP2;P2;SDS_P1;SDS_P2;PMS_P1;PMS_P2;Temp;Humidity;BMP_temperature;BMP_pressure;BME280_temperature;BME280_humidity;BME280_pressure;Samples;Min_cycle;Max_cycle;Signal;HPM_P1;HPM_P2
2021/05/22 00:01:51;;;;;;;11.07;3.85;;;13.40;99.90;;;;;;5057783;28;20394;-91
2021/05/22 00:04:18;;;;;;;8.48;3.55;;;13.40;99.90;;;;;;5036360;28;20491;-94
2021/05/22 00:06:48;;;;;;;8.50;3.60;;;13.40;99.90;;;;;;5056443;28;20580;-89
2021/05/22 00:09:15;;;;;;;6.82;3.20;;;13.50;99.90;;;;;;5057573;28;20398;-93
2021/05/22 00:11:42;;;;;;;8.37;3.30;;;13.60;99.90;;;;;;5056640;28;20390;-93
2021/05/22 00:14:09;;;;;;;8.55;3.20;;;13.70;99.90;;;;;;5054700;28;20381;-93
2021/05/22 00:16:36;;;;;;;7.68;2.95;;;13.70;99.90;;;;;;5057434;28;20379;-93
2021/05/22 00:19:03;;;;;;;8.60;3.17;;;13.80;99.90;;;;;;5039868;28;20398;-92
2021/05/22 00:21:30;;;;;;;5.40;2.70;;;13.90;99.90;;;;;;5057634;28;20411;-93
2021/05/22 00:23:57;;;;;;;9.52;2.95;;;14.20;99.90;;;;;;5058228;28;20855;-93
2021/05/22 00:26:24;;;;;;;10.93;3.58;;;14.70;99.90;;;;;;5041592;28;20792;-91
2021/05/22 00:28:51;;;;;;;9.70;3.22;;;14.70;99.90;;;;;;5058106;28;20364;-93
2021/05/22 00:31:18;;;;;;;5.82;2.67;;;14.50;99.90;;;;;;5057215;28;20399;-93
2021/05/22 00:33:45;;;;;;;10.20;3.15;;;14.50;99.90;;;;;;5057276;28;20383;-92
2021/05/22 00:36:12;;;;;;;12.55;3.72;;;14.30;99.90;;;;;;5058506;28;20481;-91
2021/05/22 00:38:39;;;;;;;9.02;3.53;;;14.30;99.90;;;;;;5056274;28;20825;-93
2021/05/22 00:41:07;;;;;;;9.05;3.60;;;14.30;99.90;;;;;;5018943;28;20457;-92
2021/05/22 00:43:33;;;;;;;9.95;3.50;;;14.30;99.90;;;;;;5037794;28;20371;-93
2021/05/22 00:46:00;;;;;;;10.85;3.70;;;14.40;99.90;;;;;;5041451;28;20475;-93
2021/05/22 00:48:28;;;;;;;11.32;3.40;;;14.40;99.90;;;;;;5057081;28;20388;-90
2021/05/22 00:50:55;;;;;;;9.00;3.38;;;14.50;99.90;;;;;;5026557;28;20386;-91
2021/05/22 00:53:22;;;;;;;9.65;2.85;;;14.50;99.90;;;;;;5055426;28;20384;-92
2021/05/22 00:55:49;;;;;;;7.65;2.70;;;14.50;99.90;;;;;;5038078;28;20422;-91
2021/05/22 00:58:17;;;;;;;9.20;2.78;;;14.50;99.90;;;;;;5036894;28;20380;-91
2021/05/22 01:00:45;;;;;;;8.43;3.17;;;14.60;99.90;;;;;;5057252;28;20431;-91
2021/05/22 01:03:43;;;;;;;9.93;2.83;;;14.60;99.90;;;;;;5057960;28;20390;-91
2021/05/22 01:06:17;;;;;;;12.40;3.58;;;14.70;99.90;;;;;;5038803;28;20509;-92
2021/05/22 01:08:46;;;;;;;8.00;2.90;;;14.70;99.90;;;;;;5057482;28;20403;-91
2021/05/22 01:11:28;;;;;;;11.68;3.35;;;14.80;99.90;;;;;;5051631;28;20383;-89
2021/05/22 01:14:18;;;;;;;12.23;2.95;;;14.90;99.90;;;;;;5056844;28;20458;-91
2021/05/22 01:16:48;;;;;;;7.30;2.70;;;15.00;99.90;;;;;;5056421;28;20436;-90
2021/05/22 01:19:47;;;;;;;10.27;3.00;;;14.90;99.90;;;;;;5055960;28;20395;-88
2021/05/22 01:22:16;;;;;;;13.93;3.10;;;14.90;99.90;;;;;;5057460;28;20428;-90
2021/05/22 01:25:00;;;;;;;11.00;2.88;;;15.00;99.90;;;;;;5056625;28;20368;-90
2021/05/22 01:27:27;;;;;;;11.10;2.63;;;15.10;99.90;;;;;;5056281;28;20380;-89
2021/05/22 01:29:55;;;;;;;6.57;2.53;;;15.20;99.90;;;;;;5054700;28;20384;-90
2021/05/22 01:32:22;;;;;;;10.70;2.83;;;15.30;99.90;;;;;;5037434;28;20488;-91
2021/05/22 01:34:49;;;;;;;9.27;2.80;;;15.30;99.90;;;;;;5042605;28;20384;-88
2021/05/22 01:37:16;;;;;;;10.43;2.60;;;15.40;99.90;;;;;;5055989;28;20384;-89
2021/05/22 01:39:43;;;;;;;9.43;3.00;;;15.40;99.90;;;;;;5040825;28;20412;-89
2021/05/22 01:42:11;;;;;;;8.27;2.33;;;15.40;99.90;;;;;;5036000;28;20489;-89
2021/05/22 01:44:40;;;;;;;8.73;2.63;;;15.40;99.90;;;;;;5042983;28;20411;-90
2021/05/22 01:47:07;;;;;;;10.50;2.78;;;15.40;99.90;;;;;;5037609;28;20515;-89
2021/05/22 01:49:35;;;;;;;10.75;2.30;;;15.40;99.90;;;;;;5056747;28;20382;-90
2021/05/22 01:52:04;;;;;;;10.88;2.40;;;15.40;99.90;;;;;;5038958;28;20376;-90
2021/05/22 01:54:32;;;;;;;11.93;2.65;;;15.50;99.90;;;;;;5054271;28;20550;-90
2021/05/22 01:57:01;;;;;;;10.20;2.53;;;15.60;99.90;;;;;;5053510;28;20403;-90
2021/05/22 01:59:28;;;;;;;9.45;2.20;;;15.60;99.90;;;;;;5051917;28;20478;-90
2021/05/22 02:01:56;;;;;;;9.70;2.83;;;15.70;99.90;;;;;;5038165;28;20552;-90
2021/05/22 02:04:28;;;;;;;8.07;2.77;;;15.60;99.90;;;;;;5035587;28;20798;-91
2021/05/22 02:06:59;;;;;;;9.15;2.83;;;15.70;99.90;;;;;;5035915;28;20386;-90
2021/05/22 02:09:28;;;;;;;6.97;2.20;;;15.70;99.90;;;;;;5035946;28;20464;-90
2021/05/22 02:11:56;;;;;;;8.37;2.57;;;15.70;99.90;;;;;;5054544;28;20479;-90
2021/05/22 02:14:34;;;;;;;8.95;2.65;;;15.70;99.90;;;;;;5046884;28;20458;-88
2021/05/22 02:17:06;;;;;;;9.48;2.70;;;15.80;99.90;;;;;;5022223;28;20392;-90
2021/05/22 02:19:35;;;;;;;6.63;2.75;;;15.80;99.90;;;;;;5045750;28;20383;-89
2021/05/22 02:22:09;;;;;;;9.65;3.15;;;15.80;99.90;;;;;;5058442;28;20400;-91
2021/05/22 02:24:37;;;;;;;7.35;2.50;;;15.80;99.90;;;;;;5056376;28;20944;-90
2021/05/22 02:27:05;;;;;;;8.35;2.50;;;15.90;99.90;;;;;;5055185;28;20391;-90
2021/05/22 02:29:36;;;;;;;6.28;2.38;;;16.00;99.90;;;;;;5056352;28;20368;-90
2021/05/22 02:32:04;;;;;;;9.02;2.63;;;16.00;99.90;;;;;;5025312;28;20401;-90
2021/05/22 02:34:47;;;;;;;9.18;2.88;;;16.00;99.90;;;;;;5034836;28;20373;-88
2021/05/22 02:37:19;;;;;;;10.70;2.50;;;16.00;99.90;;;;;;5035638;28;20397;-91
2021/05/22 02:39:50;;;;;;;8.98;2.45;;;16.10;99.90;;;;;;5050475;28;20388;-90
2021/05/22 02:42:18;;;;;;;7.43;2.60;;;16.10;99.90;;;;;;5052131;28;20460;-89
2021/05/22 02:44:51;;;;;;;8.80;2.65;;;16.20;99.90;;;;;;5054367;28;20372;-89
2021/05/22 02:47:24;;;;;;;9.07;2.50;;;16.30;99.90;;;;;;5053982;28;20372;-90
2021/05/22 02:49:51;;;;;;;8.00;2.00;;;16.40;99.90;;;;;;5054159;28;20384;-90
2021/05/22 02:52:20;;;;;;;7.97;2.13;;;16.40;99.90;;;;;;5050143;28;20478;-90
2021/05/22 02:54:49;;;;;;;6.13;1.85;;;16.40;99.90;;;;;;5035223;28;20389;-90
2021/05/22 02:57:19;;;;;;;6.85;1.75;;;16.60;99.90;;;;;;5054648;28;20399;-89
2021/05/22 02:59:51;;;;;;;7.47;1.90;;;16.60;99.90;;;;;;5052676;28;20387;-90
2021/05/22 03:02:19;;;;;;;5.90;1.70;;;16.60;99.90;;;;;;5053434;28;20568;-90
2021/05/22 03:04:47;;;;;;;7.80;2.05;;;16.60;99.90;;;;;;5054541;28;20380;-90
2021/05/22 03:07:14;;;;;;;6.37;2.00;;;16.60;99.90;;;;;;5053433;28;20390;-90
2021/05/22 03:09:42;;;;;;;7.40;2.00;;;16.60;99.90;;;;;;5053768;28;20368;-89
2021/05/22 03:12:10;;;;;;;10.10;1.92;;;16.60;99.90;;;;;;5053832;28;20392;-90
2021/05/22 03:14:37;;;;;;;8.80;2.00;;;16.50;99.90;;;;;;5045729;28;20452;-88
2021/05/22 03:17:04;;;;;;;9.35;2.30;;;16.50;99.90;;;;;;5055795;28;20419;-90
2021/05/22 03:19:31;;;;;;;5.93;1.70;;;16.50;99.90;;;;;;5055704;28;20388;-90
2021/05/22 03:21:58;;;;;;;5.60;1.67;;;16.60;99.90;;;;;;5055463;28;20412;-89
2021/05/22 03:24:25;;;;;;;7.93;2.13;;;16.60;99.90;;;;;;5056147;28;20505;-91
2021/05/22 03:26:53;;;;;;;7.78;1.90;;;16.70;99.90;;;;;;5050477;28;20389;-91
2021/05/22 03:29:20;;;;;;;6.75;1.70;;;16.60;99.90;;;;;;5018385;28;20393;-91
2021/05/22 03:31:47;;;;;;;4.85;1.20;;;16.50;99.90;;;;;;5044410;28;20387;-90
2021/05/22 03:34:14;;;;;;;4.88;1.48;;;16.60;99.90;;;;;;5037927;28;20406;-86
2021/05/22 03:36:41;;;;;;;7.70;1.70;;;16.60;99.90;;;;;;5054826;28;20482;-89
2021/05/22 03:39:08;;;;;;;6.72;1.50;;;16.70;99.90;;;;;;5021335;28;20390;-90
2021/05/22 03:41:35;;;;;;;5.05;1.13;;;16.70;99.90;;;;;;5029634;28;20489;-89
2021/05/22 03:44:02;;;;;;;5.68;1.40;;;16.80;99.90;;;;;;5057257;28;20382;-89
2021/05/22 03:46:29;;;;;;;7.53;1.63;;;16.90;99.90;;;;;;5057548;28;20426;-90
2021/05/22 03:48:56;;;;;;;8.20;1.90;;;17.00;99.90;;;;;;5050977;28;20376;-91
2021/05/22 03:51:23;;;;;;;5.70;1.60;;;17.10;99.90;;;;;;5030119;28;20401;-89
2021/05/22 03:53:50;;;;;;;7.18;2.00;;;17.20;99.90;;;;;;5037450;28;20468;-90
2021/05/22 03:56:17;;;;;;;6.35;1.75;;;17.20;99.90;;;;;;5036535;28;20416;-92
2021/05/22 03:58:44;;;;;;;5.00;1.60;;;17.10;99.90;;;;;;5037894;28;20381;-89
2021/05/22 04:01:11;;;;;;;6.38;2.00;;;17.10;99.90;;;;;;5045658;28;20450;-87
2021/05/22 04:03:38;;;;;;;6.68;1.88;;;17.10;99.90;;;;;;5056050;28;20379;-92
2021/05/22 04:06:05;;;;;;;5.43;1.38;;;17.10;99.90;;;;;;5038907;28;20368;-89
2021/05/22 04:08:33;;;;;;;5.20;1.70;;;17.10;99.90;;;;;;5042801;28;20792;-89
2021/05/22 04:11:00;;;;;;;5.97;1.52;;;17.10;99.90;;;;;;5032961;28;20409;-90
2021/05/22 04:13:27;;;;;;;6.40;1.48;;;17.00;99.90;;;;;;5037691;28;20396;-89
2021/05/22 04:15:54;;;;;;;5.93;1.55;;;17.00;99.90;;;;;;5035706;28;20869;-90
2021/05/22 04:18:20;;;;;;;6.18;1.45;;;16.90;99.90;;;;;;5036427;28;20819;-90
2021/05/22 04:20:47;;;;;;;5.63;1.45;;;16.80;99.90;;;;;;5036487;28;20892;-91
2021/05/22 04:23:15;;;;;;;9.60;1.88;;;16.80;99.90;;;;;;5037235;28;20374;-90
2021/05/22 04:25:42;;;;;;;8.90;1.88;;;16.80;99.90;;;;;;5035254;28;20392;-90
2021/05/22 04:28:09;;;;;;;7.72;2.00;;;16.80;99.90;;;;;;5035971;28;20898;-90
2021/05/22 04:30:36;;;;;;;3.72;1.67;;;16.90;99.90;;;;;;5036694;28;20385;-89
2021/05/22 04:33:04;;;;;;;5.50;1.90;;;16.90;99.90;;;;;;5036080;28;20472;-90
2021/05/22 04:35:31;;;;;;;6.20;1.85;;;16.90;99.90;;;;;;5052494;28;20471;-89
2021/05/22 04:37:58;;;;;;;5.82;1.60;;;16.90;99.90;;;;;;5055477;28;20379;-91
2021/05/22 04:40:25;;;;;;;7.43;1.60;;;16.90;99.90;;;;;;5055298;28;20392;-90
2021/05/22 04:42:52;;;;;;;9.55;2.28;;;16.90;99.90;;;;;;5055230;28;20419;-89
2021/05/22 04:45:19;;;;;;;8.18;2.00;;;16.90;99.90;;;;;;5054845;28;20474;-89
2021/05/22 04:47:46;;;;;;;4.40;1.58;;;16.90;99.90;;;;;;5038034;28;20387;-90
2021/05/22 04:50:13;;;;;;;5.77;1.90;;;16.90;99.90;;;;;;5054364;28;20396;-90
2021/05/22 04:52:40;;;;;;;8.18;2.13;;;16.90;99.90;;;;;;5055882;28;20517;-90
2021/05/22 04:55:08;;;;;;;6.88;1.80;;;16.90;99.90;;;;;;5055753;28;20372;-90
2021/05/22 04:57:35;;;;;;;6.75;2.10;;;17.00;99.90;;;;;;5055391;28;20510;-87
2021/05/22 05:00:03;;;;;;;7.25;1.50;;;16.90;99.90;;;;;;5055290;28;20375;-90
2021/05/22 05:02:30;;;;;;;7.35;1.92;;;16.80;99.90;;;;;;5054660;28;20396;-89
2021/05/22 05:04:57;;;;;;;6.90;1.77;;;16.80;99.90;;;;;;5036927;28;20442;-91
2021/05/22 05:07:24;;;;;;;5.15;2.00;;;16.80;99.90;;;;;;5054090;28;20411;-89
2021/05/22 05:09:52;;;;;;;7.60;1.83;;;16.80;99.90;;;;;;5055937;28;20968;-89
2021/05/22 05:12:19;;;;;;;8.30;2.07;;;16.70;99.90;;;;;;5053354;28;20376;-89
2021/05/22 05:14:46;;;;;;;5.43;1.70;;;16.60;99.90;;;;;;5055421;28;20368;-90
2021/05/22 05:17:13;;;;;;;6.65;1.90;;;16.70;99.90;;;;;;5052953;28;20380;-90
2021/05/22 05:19:40;;;;;;;9.27;2.20;;;16.60;99.90;;;;;;5055110;28;20376;-90
2021/05/22 05:22:07;;;;;;;7.05;1.90;;;16.60;99.90;;;;;;5055800;28;20400;-87
2021/05/22 05:24:34;;;;;;;6.35;1.80;;;16.60;99.90;;;;;;5055143;28;20382;-91
2021/05/22 05:27:02;;;;;;;7.82;1.98;;;16.50;99.90;;;;;;5055108;28;20387;-90
2021/05/22 05:29:28;;;;;;;4.50;1.50;;;16.50;99.90;;;;;;5038189;28;20379;-90
2021/05/22 05:31:55;;;;;;;6.32;1.98;;;16.40;99.90;;;;;;5055409;28;20411;-91
2021/05/22 05:34:22;;;;;;;8.98;1.88;;;16.30;99.90;;;;;;5052747;28;20545;-90
2021/05/22 05:36:49;;;;;;;5.70;1.63;;;16.30;99.90;;;;;;5038236;28;20495;-87
2021/05/22 05:39:17;;;;;;;10.23;1.70;;;16.30;99.90;;;;;;5059377;28;20403;-91
2021/05/22 05:41:44;;;;;;;8.32;1.80;;;16.30;99.90;;;;;;5058774;28;20406;-89
2021/05/22 05:44:11;;;;;;;7.68;2.17;;;16.30;99.90;;;;;;5056739;28;20409;-90
2021/05/22 05:46:38;;;;;;;6.45;1.75;;;16.20;99.90;;;;;;5058781;28;20374;-90
2021/05/22 05:49:05;;;;;;;8.20;1.85;;;16.10;99.90;;;;;;5058639;28;20382;-90
2021/05/22 05:51:32;;;;;;;7.40;1.77;;;16.10;99.90;;;;;;5058538;28;20433;-91
2021/05/22 05:53:59;;;;;;;8.83;1.90;;;16.00;99.90;;;;;;5039278;28;20751;-91
2021/05/22 05:56:26;;;;;;;8.90;2.03;;;15.90;99.90;;;;;;5039201;28;20391;-88
2021/05/22 05:58:53;;;;;;;5.93;2.00;;;15.90;99.90;;;;;;5057566;28;20885;-90
2021/05/22 06:01:20;;;;;;;6.93;1.95;;;15.80;99.90;;;;;;5056926;28;20495;-88
2021/05/22 06:03:48;;;;;;;8.45;2.25;;;15.70;99.90;;;;;;5034662;28;20397;-89
2021/05/22 06:06:15;;;;;;;7.10;1.88;;;15.60;99.90;;;;;;5035024;28;20392;-91
2021/05/22 06:08:42;;;;;;;8.23;2.17;;;15.50;99.90;;;;;;5057505;28;20467;-89
2021/05/22 06:11:12;;;;;;;7.43;2.30;;;15.50;99.90;;;;;;5058114;28;20380;-89
2021/05/22 06:13:39;;;;;;;8.57;1.90;;;15.40;99.90;;;;;;5057662;28;20368;-88
2021/05/22 06:18:38;;;;;;;7.13;1.65;;;15.30;99.90;;;;;;5057660;28;20403;-90
2021/05/22 06:21:07;;;;;;;8.60;1.88;;;15.20;99.90;;;;;;5057665;28;20402;-90
2021/05/22 06:23:35;;;;;;;5.72;2.13;;;15.10;99.90;;;;;;5057602;28;20400;-91
2021/05/22 06:26:04;;;;;;;8.47;2.17;;;15.10;99.90;;;;;;5037131;28;20860;-91
2021/05/22 06:28:31;;;;;;;6.15;2.00;;;15.10;99.90;;;;;;5037758;28;20373;-92
2021/05/22 06:31:02;;;;;;;8.50;2.30;;;15.00;99.90;;;;;;5037735;28;20382;-91
2021/05/22 06:33:29;;;;;;;6.37;1.93;;;15.00;99.90;;;;;;5037891;28;20408;-91
2021/05/22 06:35:56;;;;;;;8.13;1.77;;;14.90;99.90;;;;;;5037673;28;20520;-90
2021/05/22 06:38:24;;;;;;;7.00;2.22;;;14.80;99.90;;;;;;5036520;28;20366;-92
2021/05/22 06:40:51;;;;;;;5.17;1.70;;;14.70;99.90;;;;;;5019198;28;20396;-92
2021/05/22 06:43:18;;;;;;;9.95;5.18;;;14.60;99.90;;;;;;5053463;28;20400;-91
2021/05/22 06:45:56;;;;;;;10.77;5.25;;;14.50;99.90;;;;;;5055521;28;20442;-91
2021/05/22 06:48:23;;;;;;;9.30;4.20;;;14.50;99.90;;;;;;5054370;28;20387;-90
2021/05/22 06:50:50;;;;;;;8.82;3.63;;;14.30;99.90;;;;;;5055681;28;20391;-91
2021/05/22 06:53:17;;;;;;;12.50;3.78;;;14.20;99.90;;;;;;5054486;28;20863;-91
2021/05/22 06:55:44;;;;;;;8.85;3.63;;;14.20;99.90;;;;;;5052867;28;20376;-90
2021/05/22 06:58:11;;;;;;;10.73;3.88;;;14.10;99.90;;;;;;5053570;28;20378;-91
2021/05/22 07:00:38;;;;;;;9.68;2.80;;;14.00;99.90;;;;;;5053713;28;20766;-90
2021/05/22 07:03:05;;;;;;;10.20;3.15;;;14.00;99.90;;;;;;5054639;28;20422;-92
2021/05/22 07:05:32;;;;;;;8.63;3.00;;;13.90;99.90;;;;;;5051079;28;20410;-90
2021/05/22 07:08:01;;;;;;;10.07;3.55;;;13.80;99.90;;;;;;5053002;28;20384;-88
2021/05/22 07:10:28;;;;;;;9.57;3.30;;;13.80;99.90;;;;;;5052613;28;20475;-91
2021/05/22 07:12:55;;;;;;;6.78;3.30;;;13.80;99.90;;;;;;5052935;28;20383;-90
2021/05/22 07:15:22;;;;;;;12.00;3.47;;;13.70;99.90;;;;;;5040225;28;20395;-89
2021/05/22 07:17:49;;;;;;;9.98;3.97;;;13.70;99.90;;;;;;5032611;28;20378;-90
2021/05/22 07:20:16;;;;;;;13.25;3.85;;;13.70;99.90;;;;;;5049620;28;20439;-90
2021/05/22 07:22:44;;;;;;;9.40;4.00;;;13.60;99.90;;;;;;5052629;28;20426;-91
2021/05/22 07:25:12;;;;;;;11.37;4.57;;;13.50;99.90;;;;;;5034526;28;20847;-92
2021/05/22 07:27:39;;;;;;;11.13;4.90;;;13.50;99.90;;;;;;5052333;28;20739;-91
2021/05/22 07:30:09;;;;;;;11.88;5.32;;;13.40;99.90;;;;;;5051781;28;20470;-91
2021/05/22 07:32:38;;;;;;;14.13;5.60;;;13.40;99.90;;;;;;5044468;28;20410;-92
2021/05/22 07:35:07;;;;;;;11.40;5.40;;;13.30;99.90;;;;;;5052175;28;20380;-92
2021/05/22 07:37:34;;;;;;;10.35;4.88;;;13.30;99.90;;;;;;5052384;28;20379;-92
2021/05/22 07:40:02;;;;;;;12.55;4.90;;;13.20;99.90;;;;;;5034266;28;20895;-92
2021/05/22 07:42:31;;;;;;;13.57;4.80;;;13.20;99.90;;;;;;5034503;28;20388;-92
2021/05/22 07:44:59;;;;;;;12.18;4.40;;;13.20;99.90;;;;;;5046606;28;20390;-92
2021/05/22 07:47:26;;;;;;;13.10;4.50;;;13.10;99.90;;;;;;5035674;28;20453;-92
2021/05/22 07:49:53;;;;;;;9.70;4.47;;;13.10;99.90;;;;;;5051597;28;20467;-92
2021/05/22 07:52:20;;;;;;;9.90;4.75;;;13.00;99.90;;;;;;5035264;28;20422;-88
2021/05/22 07:54:48;;;;;;;14.68;5.10;;;12.90;99.90;;;;;;5052323;28;20416;-89
2021/05/22 07:57:16;;;;;;;10.77;4.70;;;12.90;99.90;;;;;;5051974;28;20376;-87
2021/05/22 07:59:44;;;;;;;10.73;5.13;;;12.90;99.90;;;;;;5044924;28;20443;-90
2021/05/22 08:02:11;;;;;;;11.57;4.65;;;12.80;99.90;;;;;;5045366;28;20414;-86
2021/05/22 08:04:38;;;;;;;11.65;4.43;;;12.80;99.90;;;;;;5049680;28;20390;-90
2021/05/22 08:07:04;;;;;;;12.80;4.88;;;12.70;99.90;;;;;;5052289;28;20450;-88
2021/05/22 08:09:31;;;;;;;12.48;4.70;;;12.70;99.90;;;;;;5045622;28;21009;-86
2021/05/22 08:11:58;;;;;;;14.57;4.65;;;12.70;99.90;;;;;;5038435;28;20390;-86
2021/05/22 08:14:25;;;;;;;11.70;4.75;;;12.70;99.90;;;;;;5039827;28;20418;-87
2021/05/22 08:16:52;;;;;;;12.13;5.00;;;12.60;99.90;;;;;;5032742;28;20951;-88
2021/05/22 08:19:19;;;;;;;14.03;4.70;;;12.70;99.90;;;;;;5024161;28;20380;-85
2021/05/22 08:21:46;;;;;;;14.25;5.90;;;12.70;99.90;;;;;;5042393;28;20437;-87
2021/05/22 08:24:14;;;;;;;11.63;5.72;;;12.70;99.90;;;;;;5039986;28;20889;-90
2021/05/22 08:26:42;;;;;;;10.77;5.45;;;12.70;99.90;;;;;;5049196;28;20797;-86
2021/05/22 08:29:10;;;;;;;14.10;5.15;;;12.60;99.90;;;;;;5020356;28;20391;-85
2021/05/22 08:31:37;;;;;;;12.82;5.35;;;12.60;99.90;;;;;;5032305;28;20449;-86
2021/05/22 08:34:05;;;;;;;12.27;5.43;;;12.50;99.90;;;;;;5045835;28;20383;-87
2021/05/22 08:36:32;;;;;;;9.60;5.05;;;12.50;99.90;;;;;;5050834;28;20394;-87
2021/05/22 08:39:00;;;;;;;18.95;8.18;;;12.40;99.90;;;;;;5048453;28;20401;-87
2021/05/22 08:41:28;;;;;;;17.00;7.30;;;12.40;99.90;;;;;;5052448;28;20497;-86
2021/05/22 08:43:55;;;;;;;29.23;15.98;;;12.40;99.90;;;;;;5031945;28;20448;-86
2021/05/22 08:46:24;;;;;;;20.70;11.10;;;12.30;99.90;;;;;;5029856;28;20759;-86
2021/05/22 08:48:51;;;;;;;26.20;16.67;;;12.20;99.90;;;;;;5043069;28;20482;-86
2021/05/22 08:51:21;;;;;;;30.00;21.23;;;12.20;99.90;;;;;;5047074;28;20395;-85
2021/05/22 08:53:48;;;;;;;27.30;17.35;;;12.20;99.90;;;;;;5045329;28;20403;-85
2021/05/22 08:56:16;;;;;;;29.30;15.40;;;12.20;99.90;;;;;;5047577;28;20399;-85
2021/05/22 08:58:43;;;;;;;21.23;11.30;;;12.10;99.90;;;;;;5050075;28;20402;-87
2021/05/22 09:01:11;;;;;;;21.95;12.38;;;12.10;99.90;;;;;;5047521;28;20395;-85
2021/05/22 09:03:38;;;;;;;18.23;9.52;;;12.10;99.90;;;;;;5050100;28;20898;-89
2021/05/22 09:06:06;;;;;;;16.67;7.60;;;12.10;99.90;;;;;;5052501;28;20368;-90
2021/05/22 09:08:33;;;;;;;16.60;5.80;;;12.10;99.90;;;;;;5053866;28;20955;-90
2021/05/22 09:11:04;;;;;;;12.80;5.95;;;12.10;99.90;;;;;;5053590;28;20471;-89
2021/05/22 09:13:33;;;;;;;16.13;5.28;;;12.20;99.90;;;;;;5069740;28;20387;-90
2021/05/22 09:16:09;;;;;;;10.70;5.20;;;12.20;99.90;;;;;;5070888;28;20383;-88
2021/05/22 09:18:46;;;;;;;15.50;5.80;;;12.20;99.90;;;;;;5070874;28;20469;-88
2021/05/22 09:21:14;;;;;;;14.18;5.82;;;12.20;99.90;;;;;;5072278;28;20501;-88
2021/05/22 09:23:47;;;;;;;16.03;8.30;;;12.20;99.90;;;;;;5070663;28;20380;-90
2021/05/22 09:26:17;;;;;;;19.27;7.30;;;12.10;99.90;;;;;;5071278;28;20403;-88
2021/05/22 09:28:50;;;;;;;18.50;7.40;;;12.10;99.90;;;;;;5069821;28;20436;-91
2021/05/22 09:31:20;;;;;;;14.25;6.72;;;12.10;99.90;;;;;;5054504;28;20460;-92
2021/05/22 09:33:47;;;;;;;18.10;10.40;;;12.00;99.90;;;;;;5071556;28;20399;-92
2021/05/22 09:36:16;;;;;;;15.30;7.70;;;11.90;99.90;;;;;;5070543;28;20761;-90
2021/05/22 09:38:51;;;;;;;19.02;8.60;;;11.90;99.90;;;;;;5047973;28;20392;-89
2021/05/22 09:41:26;;;;;;;14.52;7.05;;;11.90;99.90;;;;;;5074186;28;20423;-91
2021/05/22 09:44:13;;;;;;;15.68;8.27;;;11.80;99.90;;;;;;5057146;28;20406;-90
2021/05/22 09:46:46;;;;;;;15.35;8.60;;;11.70;99.90;;;;;;5051865;28;20400;-91
2021/05/22 09:49:24;;;;;;;16.83;7.97;;;11.70;99.90;;;;;;5072106;28;20379;-88
2021/05/22 09:51:56;;;;;;;16.00;6.57;;;11.60;99.90;;;;;;5049777;28;20393;-91
2021/05/22 09:54:49;;;;;;;12.73;6.85;;;11.60;99.90;;;;;;5066001;28;20441;-89
2021/05/22 09:57:24;;;;;;;14.15;7.38;;;11.50;99.90;;;;;;5051554;28;20395;-90
2021/05/22 10:00:12;;;;;;;16.98;8.13;;;11.50;99.90;;;;;;5055269;28;20412;-90
2021/05/22 10:02:51;;;;;;;14.80;8.25;;;11.40;99.90;;;;;;5075586;28;20470;-89
2021/05/22 10:05:31;;;;;;;17.88;8.63;;;11.40;99.90;;;;;;5070829;28;20376;-89
2021/05/22 10:08:00;;;;;;;17.95;9.10;;;11.30;99.90;;;;;;5071774;28;20395;-90
2021/05/22 10:10:50;;;;;;;18.92;10.10;;;11.30;99.90;;;;;;5064285;28;20412;-90
2021/05/22 10:13:19;;;;;;;20.75;10.90;;;11.30;99.90;;;;;;5039928;28;20862;-89
2021/05/22 10:15:52;;;;;;;22.50;11.70;;;11.20;99.90;;;;;;5067521;28;20459;-90
2021/05/22 10:18:20;;;;;;;19.63;11.10;;;11.20;99.90;;;;;;5045540;28;20404;-88
2021/05/22 10:20:48;;;;;;;17.88;11.40;;;11.10;99.90;;;;;;5059466;28;20391;-86
2021/05/22 10:23:17;;;;;;;21.58;13.23;;;11.10;99.90;;;;;;5055334;28;20434;-89
2021/05/22 10:25:46;;;;;;;20.88;13.32;;;11.10;99.90;;;;;;5069423;28;20392;-90
2021/05/22 10:28:15;;;;;;;19.70;12.55;;;11.10;99.90;;;;;;5074190;28;20447;-89
2021/05/22 10:30:43;;;;;;;25.58;15.07;;;11.10;99.90;;;;;;5070582;28;20411;-89
2021/05/22 10:33:12;;;;;;;27.52;15.13;;;11.00;99.90;;;;;;5052188;28;20395;-87
2021/05/22 10:35:42;;;;;;;21.27;14.77;;;11.00;99.90;;;;;;5073306;28;20388;-90
2021/05/22 10:38:10;;;;;;;23.63;14.77;;;10.90;99.90;;;;;;5046987;28;20398;-86
2021/05/22 10:41:15;;;;;;;22.27;14.88;;;10.90;99.90;;;;;;5069934;28;20564;-92
2021/05/22 10:43:58;;;;;;;23.70;15.35;;;10.90;99.90;;;;;;5049200;28;20395;-90
2021/05/22 10:46:25;;;;;;;23.77;15.93;;;10.80;99.90;;;;;;5064337;28;20408;-87
2021/05/22 10:49:01;;;;;;;23.63;14.93;;;10.90;99.90;;;;;;5048119;28;20401;-90
2021/05/22 10:51:38;;;;;;;19.35;14.77;;;10.80;99.90;;;;;;5060127;28;20430;-88
2021/05/22 10:54:14;;;;;;;22.07;14.03;;;10.80;99.90;;;;;;5068472;28;20399;-90
2021/05/22 10:57:00;;;;;;;21.05;13.68;;;10.80;99.90;;;;;;5047381;28;20384;-90
2021/05/22 10:59:28;;;;;;;21.17;14.07;;;10.80;99.90;;;;;;5070862;28;22033;-92
2021/05/22 11:01:55;;;;;;;20.48;13.27;;;10.80;99.90;;;;;;5073373;28;20395;-91
2021/05/22 11:04:24;;;;;;;21.27;13.52;;;10.80;99.90;;;;;;5061295;28;20403;-91
2021/05/22 11:06:55;;;;;;;19.98;12.93;;;10.80;99.90;;;;;;5049263;28;20526;-92
2021/05/22 11:09:28;;;;;;;19.20;12.23;;;10.80;99.90;;;;;;5048384;28;20481;-90
2021/05/22 11:12:00;;;;;;;18.50;11.38;;;10.80;99.90;;;;;;5037227;28;20391;-88
2021/05/22 11:14:36;;;;;;;19.58;12.00;;;10.70;99.90;;;;;;5046740;28;20395;-90
2021/05/22 11:20:01;;;;;;;18.45;11.80;;;10.70;99.90;;;;;;5073769;28;20477;-91
2021/05/22 11:22:30;;;;;;;20.00;11.32;;;10.70;99.90;;;;;;5034904;28;20461;-88
2021/05/22 11:25:02;;;;;;;19.48;11.48;;;10.70;99.90;;;;;;5058699;28;20383;-92
2021/05/22 11:27:52;;;;;;;18.00;11.05;;;10.70;99.90;;;;;;5055985;28;20409;-90
2021/05/22 11:30:35;;;;;;;21.27;12.40;;;10.70;99.90;;;;;;5054689;28;20428;-91
2021/05/22 11:33:08;;;;;;;21.70;12.48;;;10.60;99.90;;;;;;5054957;28;20392;-91
2021/05/22 11:35:44;;;;;;;23.58;13.63;;;10.50;99.90;;;;;;5060680;28;20392;-90
2021/05/22 11:38:17;;;;;;;20.17;12.52;;;10.50;99.90;;;;;;5035813;28;20417;-90
2021/05/22 11:40:45;;;;;;;18.93;13.37;;;10.50;99.90;;;;;;5056788;28;20459;-91
2021/05/22 11:43:15;;;;;;;21.08;13.93;;;10.50;99.90;;;;;;5038645;28;20395;-89
2021/05/22 11:45:43;;;;;;;19.10;13.75;;;10.40;99.90;;;;;;5065976;28;20385;-87
2021/05/22 11:48:22;;;;;;;18.45;13.55;;;10.30;99.90;;;;;;5050311;28;20387;-91
2021/05/22 11:50:50;;;;;;;18.17;12.88;;;10.30;99.90;;;;;;5034886;28;20440;-90
2021/05/22 11:53:18;;;;;;;18.58;12.75;;;10.30;99.90;;;;;;5033352;28;20386;-89
2021/05/22 11:55:55;;;;;;;21.35;12.57;;;10.40;99.90;;;;;;5041561;28;20387;-91
2021/05/22 11:58:22;;;;;;;19.25;12.98;;;10.40;99.90;;;;;;5036194;28;20396;-90
2021/05/22 12:00:50;;;;;;;21.92;13.30;;;10.50;99.90;;;;;;5054432;28;20422;-91
2021/05/22 12:03:28;;;;;;;21.48;13.05;;;10.50;99.90;;;;;;5051538;28;20397;-87
2021/05/22 12:05:55;;;;;;;20.67;11.87;;;10.50;99.90;;;;;;5041758;28;20390;-90
2021/05/22 12:08:27;;;;;;;18.42;12.38;;;10.60;99.90;;;;;;5049026;28;20483;-90
2021/05/22 12:10:54;;;;;;;20.33;12.82;;;10.50;99.90;;;;;;5037567;28;20523;-92
2021/05/22 12:13:24;;;;;;;19.98;14.45;;;10.40;99.90;;;;;;5053795;28;20866;-90
2021/05/22 12:15:53;;;;;;;22.15;16.10;;;10.30;99.90;;;;;;5055211;28;20431;-93
2021/05/22 12:18:20;;;;;;;23.83;16.50;;;10.20;99.90;;;;;;5037841;28;20427;-92
2021/05/22 12:20:54;;;;;;;20.85;15.98;;;10.10;99.90;;;;;;5049568;28;20415;-92
2021/05/22 12:23:34;;;;;;;22.52;14.75;;;10.10;99.90;;;;;;5038527;28;20440;-92
2021/05/22 12:26:03;;;;;;;19.35;11.50;;;10.00;99.90;;;;;;5055343;28;20391;-90
2021/05/22 12:28:30;;;;;;;18.98;13.85;;;10.10;99.90;;;;;;5055424;28;20394;-93
2021/05/22 12:30:59;;;;;;;22.88;17.05;;;10.00;99.90;;;;;;5056153;28;20392;-91
2021/05/22 12:33:28;;;;;;;21.30;17.33;;;10.00;99.90;;;;;;5054518;28;20432;-92
2021/05/22 12:36:09;;;;;;;22.47;16.50;;;10.00;99.90;;;;;;5054597;28;20482;-92
2021/05/22 12:38:45;;;;;;;21.98;15.02;;;9.90;99.90;;;;;;5035295;28;20384;-91
2021/05/22 12:41:14;;;;;;;18.00;12.40;;;9.90;99.90;;;;;;5038107;28;20457;-90
2021/05/22 12:43:50;;;;;;;16.55;12.68;;;9.90;99.90;;;;;;5034206;28;20391;-92
2021/05/22 12:46:46;;;;;;;17.08;10.45;;;9.90;99.90;;;;;;5056292;28;20431;-92
2021/05/22 12:49:21;;;;;;;19.88;9.75;;;9.90;99.90;;;;;;5045824;28;20890;-89
2021/05/22 12:52:10;;;;;;;16.20;9.90;;;10.00;99.90;;;;;;5049874;28;20405;-91
2021/05/22 12:54:37;;;;;;;17.20;8.57;;;10.00;99.90;;;;;;5041390;28;20384;-90
2021/05/22 12:57:14;;;;;;;14.75;8.27;;;10.10;99.90;;;;;;5036942;28;20406;-91
2021/05/22 12:59:56;;;;;;;17.08;8.77;;;10.10;99.90;;;;;;5054215;28;20375;-91